sensor_id;sensor_type;location;lat;lon;timestamp;P1;durP1;ratioP1;P2;durP2;ratioP2
32876;SDS011;19226;51.600;8.034;2022-07-19T00:02:22;6.75;;;1.85;;
32876;SDS011;19226;51.600;8.034;2022-07-19T00:04:48;4.97;;;1.40;;
32876;SDS011;19226;51.600;8.034;2022-07-19T00:07:14;4.95;;;1.67;;
32876;SDS011;19226;51.600;8.034;2022-07-19T00:09:40;2.80;;;1.50;;
32876;SDS011;19226;51.600;8.034;2022-07-19T00:12:07;4.88;;;1.55;;
32876;SDS011;19226;51.600;8.034;2022-07-19T00:14:33;8.13;;;2.05;;
32876;SDS011;19226;51.600;8.034;2022-07-19T00:16:59;3.67;;;1.50;;
32876;SDS011;19226;51.600;8.034;2022-07-19T00:19:25;7.28;;;2.08;;
32876;SDS011;19226;51.600;8.034;2022-07-19T00:21:51;4.60;;;1.50;;
32876;SDS011;19226;51.600;8.034;2022-07-19T00:24:17;7.68;;;1.60;;
32876;SDS011;19226;51.600;8.034;2022-07-19T00:26:43;7.28;;;1.83;;
32876;SDS011;19226;51.600;8.034;2022-07-19T00:29:10;7.38;;;1.80;;
32876;SDS011;19226;51.600;8.034;2022-07-19T00:31:36;6.25;;;1.52;;
32876;SDS011;19226;51.600;8.034;2022-07-19T00:34:02;4.53;;;1.42;;
32876;SDS011;19226;51.600;8.034;2022-07-19T00:36:28;2.58;;;1.40;;
32876;SDS011;19226;51.600;8.034;2022-07-19T00:38:56;4.82;;;1.60;;
32876;SDS011;19226;51.600;8.034;2022-07-19T00:41:22;8.77;;;1.85;;
32876;SDS011;19226;51.600;8.034;2022-07-19T00:43:48;4.45;;;1.42;;
32876;SDS011;19226;51.600;8.034;2022-07-19T00:46:17;2.45;;;1.50;;
32876;SDS011;19226;51.600;8.034;2022-07-19T00:48:45;3.47;;;1.42;;
32876;SDS011;19226;51.600;8.034;2022-07-19T00:51:32;6.30;;;1.70;;
32876;SDS011;19226;51.600;8.034;2022-07-19T00:54:00;5.57;;;1.38;;
32876;SDS011;19226;51.600;8.034;2022-07-19T00:56:27;2.15;;;1.10;;
32876;SDS011;19226;51.600;8.034;2022-07-19T00:58:56;4.18;;;1.60;;
32876;SDS011;19226;51.600;8.034;2022-07-19T01:01:24;8.23;;;1.27;;
32876;SDS011;19226;51.600;8.034;2022-07-19T01:03:54;2.70;;;1.30;;
32876;SDS011;19226;51.600;8.034;2022-07-19T01:06:21;2.35;;;1.42;;
32876;SDS011;19226;51.600;8.034;2022-07-19T01:08:48;7.25;;;1.50;;
32876;SDS011;19226;51.600;8.034;2022-07-19T01:11:14;1.65;;;1.20;;
32876;SDS011;19226;51.600;8.034;2022-07-19T01:13:40;6.63;;;1.55;;
32876;SDS011;19226;51.600;8.034;2022-07-19T01:16:09;3.85;;;1.63;;
32876;SDS011;19226;51.600;8.034;2022-07-19T01:18:40;3.45;;;1.40;;
32876;SDS011;19226;51.600;8.034;2022-07-19T01:21:06;4.68;;;1.63;;
32876;SDS011;19226;51.600;8.034;2022-07-19T01:23:36;2.17;;;1.30;;
32876;SDS011;19226;51.600;8.034;2022-07-19T01:26:02;9.93;;;1.67;;
32876;SDS011;19226;51.600;8.034;2022-07-19T01:28:31;7.57;;;1.65;;
32876;SDS011;19226;51.600;8.034;2022-07-19T01:30:58;4.85;;;1.70;;
32876;SDS011;19226;51.600;8.034;2022-07-19T01:33:24;1.90;;;1.20;;
32876;SDS011;19226;51.600;8.034;2022-07-19T01:35:50;7.63;;;2.08;;
32876;SDS011;19226;51.600;8.034;2022-07-19T01:38:16;5.93;;;1.92;;
32876;SDS011;19226;51.600;8.034;2022-07-19T01:40:42;4.30;;;1.70;;
32876;SDS011;19226;51.600;8.034;2022-07-19T01:43:08;4.90;;;1.58;;
32876;SDS011;19226;51.600;8.034;2022-07-19T01:45:34;6.70;;;1.67;;
32876;SDS011;19226;51.600;8.034;2022-07-19T01:48:01;2.83;;;1.48;;
32876;SDS011;19226;51.600;8.034;2022-07-19T01:52:56;6.15;;;1.60;;
32876;SDS011;19226;51.600;8.034;2022-07-19T01:55:22;4.82;;;1.67;;
32876;SDS011;19226;51.600;8.034;2022-07-19T01:57:48;2.17;;;1.48;;
32876;SDS011;19226;51.600;8.034;2022-07-19T02:00:16;3.90;;;1.65;;
32876;SDS011;19226;51.600;8.034;2022-07-19T02:02:42;4.60;;;1.40;;
32876;SDS011;19226;51.600;8.034;2022-07-19T02:05:09;6.78;;;1.75;;
32876;SDS011;19226;51.600;8.034;2022-07-19T02:07:35;6.13;;;1.48;;
32876;SDS011;19226;51.600;8.034;2022-07-19T02:10:02;5.50;;;1.90;;
32876;SDS011;19226;51.600;8.034;2022-07-19T02:12:29;2.28;;;1.38;;
32876;SDS011;19226;51.600;8.034;2022-07-19T02:14:56;4.40;;;1.55;;
32876;SDS011;19226;51.600;8.034;2022-07-19T02:17:22;5.35;;;1.42;;
32876;SDS011;19226;51.600;8.034;2022-07-19T02:19:50;3.67;;;1.80;;
32876;SDS011;19226;51.600;8.034;2022-07-19T02:22:16;2.28;;;1.30;;
32876;SDS011;19226;51.600;8.034;2022-07-19T02:24:43;1.55;;;1.30;;
32876;SDS011;19226;51.600;8.034;2022-07-19T02:27:09;7.85;;;1.45;;
32876;SDS011;19226;51.600;8.034;2022-07-19T02:29:37;6.50;;;1.70;;
32876;SDS011;19226;51.600;8.034;2022-07-19T02:32:04;2.05;;;1.50;;
32876;SDS011;19226;51.600;8.034;2022-07-19T02:34:30;1.98;;;1.38;;
32876;SDS011;19226;51.600;8.034;2022-07-19T02:36:56;4.38;;;1.35;;
32876;SDS011;19226;51.600;8.034;2022-07-19T02:39:22;8.38;;;1.83;;
32876;SDS011;19226;51.600;8.034;2022-07-19T02:41:48;3.08;;;1.90;;
32876;SDS011;19226;51.600;8.034;2022-07-19T02:44:14;4.75;;;2.08;;
32876;SDS011;19226;51.600;8.034;2022-07-19T02:46:40;12.85;;;1.85;;
32876;SDS011;19226;51.600;8.034;2022-07-19T02:49:07;4.82;;;1.90;;
32876;SDS011;19226;51.600;8.034;2022-07-19T02:51:33;6.07;;;1.83;;
32876;SDS011;19226;51.600;8.034;2022-07-19T02:54:00;6.57;;;1.92;;
32876;SDS011;19226;51.600;8.034;2022-07-19T02:56:26;5.75;;;2.20;;
32876;SDS011;19226;51.600;8.034;2022-07-19T02:58:53;1.67;;;1.58;;
32876;SDS011;19226;51.600;8.034;2022-07-19T03:01:20;2.40;;;1.60;;
32876;SDS011;19226;51.600;8.034;2022-07-19T03:03:46;6.07;;;1.90;;
32876;SDS011;19226;51.600;8.034;2022-07-19T03:06:13;10.10;;;1.77;;
32876;SDS011;19226;51.600;8.034;2022-07-19T03:08:41;1.65;;;1.48;;
32876;SDS011;19226;51.600;8.034;2022-07-19T03:11:08;9.48;;;2.13;;
32876;SDS011;19226;51.600;8.034;2022-07-19T03:13:34;3.45;;;1.52;;
32876;SDS011;19226;51.600;8.034;2022-07-19T03:16:01;3.28;;;1.77;;
32876;SDS011;19226;51.600;8.034;2022-07-19T03:18:28;5.03;;;2.05;;
32876;SDS011;19226;51.600;8.034;2022-07-19T03:20:54;5.00;;;2.05;;
32876;SDS011;19226;51.600;8.034;2022-07-19T03:23:20;5.00;;;2.13;;
32876;SDS011;19226;51.600;8.034;2022-07-19T03:25:47;10.00;;;1.83;;
32876;SDS011;19226;51.600;8.034;2022-07-19T03:28:13;4.47;;;1.80;;
32876;SDS011;19226;51.600;8.034;2022-07-19T03:30:41;3.35;;;2.08;;
32876;SDS011;19226;51.600;8.034;2022-07-19T03:33:07;3.47;;;1.95;;
32876;SDS011;19226;51.600;8.034;2022-07-19T03:35:34;6.03;;;2.20;;
32876;SDS011;19226;51.600;8.034;2022-07-19T03:38:00;9.90;;;2.40;;
32876;SDS011;19226;51.600;8.034;2022-07-19T03:40:27;3.75;;;1.92;;
32876;SDS011;19226;51.600;8.034;2022-07-19T03:42:53;2.78;;;1.92;;
32876;SDS011;19226;51.600;8.034;2022-07-19T03:45:19;5.35;;;2.53;;
32876;SDS011;19226;51.600;8.034;2022-07-19T03:47:46;3.58;;;2.20;;
32876;SDS011;19226;51.600;8.034;2022-07-19T03:50:13;9.00;;;2.00;;
32876;SDS011;19226;51.600;8.034;2022-07-19T03:52:39;9.02;;;2.20;;
32876;SDS011;19226;51.600;8.034;2022-07-19T03:55:05;2.60;;;1.98;;
32876;SDS011;19226;51.600;8.034;2022-07-19T03:57:32;6.63;;;2.15;;
32876;SDS011;19226;51.600;8.034;2022-07-19T03:59:59;4.47;;;2.17;;
32876;SDS011;19226;51.600;8.034;2022-07-19T04:02:25;6.97;;;2.00;;
32876;SDS011;19226;51.600;8.034;2022-07-19T04:04:53;16.42;;;3.22;;
32876;SDS011;19226;51.600;8.034;2022-07-19T04:07:19;6.75;;;2.05;;
32876;SDS011;19226;51.600;8.034;2022-07-19T04:09:45;7.75;;;2.20;;
32876;SDS011;19226;51.600;8.034;2022-07-19T04:12:11;6.40;;;2.65;;
32876;SDS011;19226;51.600;8.034;2022-07-19T04:17:29;4.43;;;2.20;;
32876;SDS011;19226;51.600;8.034;2022-07-19T04:19:55;5.60;;;2.40;;
32876;SDS011;19226;51.600;8.034;2022-07-19T04:22:23;4.00;;;2.25;;
32876;SDS011;19226;51.600;8.034;2022-07-19T04:24:50;4.50;;;2.15;;
32876;SDS011;19226;51.600;8.034;2022-07-19T04:27:17;6.03;;;2.00;;
32876;SDS011;19226;51.600;8.034;2022-07-19T04:29:43;4.05;;;2.60;;
32876;SDS011;19226;51.600;8.034;2022-07-19T04:32:11;5.00;;;2.22;;
32876;SDS011;19226;51.600;8.034;2022-07-19T04:34:40;11.57;;;2.70;;
32876;SDS011;19226;51.600;8.034;2022-07-19T04:37:06;4.05;;;2.40;;
32876;SDS011;19226;51.600;8.034;2022-07-19T04:39:32;4.38;;;2.45;;
32876;SDS011;19226;51.600;8.034;2022-07-19T04:41:58;5.60;;;2.30;;
32876;SDS011;19226;51.600;8.034;2022-07-19T04:44:24;2.78;;;2.17;;
32876;SDS011;19226;51.600;8.034;2022-07-19T04:46:51;5.88;;;2.38;;
32876;SDS011;19226;51.600;8.034;2022-07-19T04:49:20;5.75;;;2.05;;
32876;SDS011;19226;51.600;8.034;2022-07-19T04:51:49;10.57;;;2.30;;
32876;SDS011;19226;51.600;8.034;2022-07-19T04:54:16;8.35;;;2.90;;
32876;SDS011;19226;51.600;8.034;2022-07-19T04:56:42;5.18;;;2.20;;
32876;SDS011;19226;51.600;8.034;2022-07-19T04:59:14;3.58;;;2.35;;
32876;SDS011;19226;51.600;8.034;2022-07-19T05:01:42;5.38;;;2.08;;
32876;SDS011;19226;51.600;8.034;2022-07-19T05:04:10;4.30;;;2.42;;
32876;SDS011;19226;51.600;8.034;2022-07-19T05:06:39;4.72;;;2.08;;
32876;SDS011;19226;51.600;8.034;2022-07-19T05:09:05;3.30;;;2.25;;
32876;SDS011;19226;51.600;8.034;2022-07-19T05:11:31;2.00;;;1.80;;
32876;SDS011;19226;51.600;8.034;2022-07-19T05:14:00;4.57;;;2.08;;
32876;SDS011;19226;51.600;8.034;2022-07-19T05:16:26;6.25;;;2.28;;
32876;SDS011;19226;51.600;8.034;2022-07-19T05:18:52;9.05;;;2.45;;
32876;SDS011;19226;51.600;8.034;2022-07-19T05:21:24;8.55;;;2.13;;
32876;SDS011;19226;51.600;8.034;2022-07-19T05:23:50;5.22;;;2.00;;
32876;SDS011;19226;51.600;8.034;2022-07-19T05:26:18;8.57;;;2.20;;
32876;SDS011;19226;51.600;8.034;2022-07-19T05:28:44;6.45;;;2.50;;
32876;SDS011;19226;51.600;8.034;2022-07-19T05:31:10;5.22;;;2.45;;
32876;SDS011;19226;51.600;8.034;2022-07-19T05:33:36;3.75;;;1.90;;
32876;SDS011;19226;51.600;8.034;2022-07-19T05:36:02;5.57;;;1.80;;
32876;SDS011;19226;51.600;8.034;2022-07-19T05:38:29;9.60;;;2.38;;
32876;SDS011;19226;51.600;8.034;2022-07-19T05:41:00;8.43;;;2.53;;
32876;SDS011;19226;51.600;8.034;2022-07-19T05:43:27;4.40;;;2.60;;
32876;SDS011;19226;51.600;8.034;2022-07-19T05:45:53;9.18;;;2.70;;
32876;SDS011;19226;51.600;8.034;2022-07-19T05:48:19;3.10;;;1.80;;
32876;SDS011;19226;51.600;8.034;2022-07-19T05:53:30;4.00;;;2.15;;
32876;SDS011;19226;51.600;8.034;2022-07-19T05:55:57;10.63;;;2.20;;
32876;SDS011;19226;51.600;8.034;2022-07-19T05:58:23;4.97;;;2.15;;
32876;SDS011;19226;51.600;8.034;2022-07-19T06:00:54;6.72;;;2.00;;
32876;SDS011;19226;51.600;8.034;2022-07-19T06:03:39;13.95;;;2.60;;
32876;SDS011;19226;51.600;8.034;2022-07-19T06:06:05;6.75;;;1.80;;
32876;SDS011;19226;51.600;8.034;2022-07-19T06:08:31;2.63;;;2.08;;
32876;SDS011;19226;51.600;8.034;2022-07-19T06:10:59;7.40;;;1.98;;
32876;SDS011;19226;51.600;8.034;2022-07-19T06:13:25;8.07;;;2.00;;
32876;SDS011;19226;51.600;8.034;2022-07-19T06:18:39;4.57;;;1.77;;
32876;SDS011;19226;51.600;8.034;2022-07-19T06:21:09;7.15;;;2.15;;
32876;SDS011;19226;51.600;8.034;2022-07-19T06:23:43;12.45;;;2.00;;
32876;SDS011;19226;51.600;8.034;2022-07-19T06:26:09;8.02;;;2.30;;
32876;SDS011;19226;51.600;8.034;2022-07-19T06:28:52;4.47;;;1.95;;
32876;SDS011;19226;51.600;8.034;2022-07-19T06:31:22;4.38;;;1.80;;
32876;SDS011;19226;51.600;8.034;2022-07-19T06:33:49;2.75;;;1.50;;
32876;SDS011;19226;51.600;8.034;2022-07-19T06:36:16;5.43;;;1.95;;
32876;SDS011;19226;51.600;8.034;2022-07-19T06:38:46;6.82;;;2.15;;
32876;SDS011;19226;51.600;8.034;2022-07-19T06:41:13;2.60;;;1.55;;
32876;SDS011;19226;51.600;8.034;2022-07-19T06:43:40;3.53;;;1.67;;
32876;SDS011;19226;51.600;8.034;2022-07-19T06:46:06;7.15;;;1.88;;
32876;SDS011;19226;51.600;8.034;2022-07-19T06:48:34;8.85;;;1.65;;
32876;SDS011;19226;51.600;8.034;2022-07-19T06:51:00;7.70;;;1.83;;
32876;SDS011;19226;51.600;8.034;2022-07-19T06:53:26;4.85;;;1.83;;
32876;SDS011;19226;51.600;8.034;2022-07-19T06:55:52;3.20;;;1.77;;
32876;SDS011;19226;51.600;8.034;2022-07-19T06:58:19;3.05;;;1.40;;
32876;SDS011;19226;51.600;8.034;2022-07-19T07:00:45;6.60;;;2.00;;
32876;SDS011;19226;51.600;8.034;2022-07-19T07:03:14;14.70;;;1.65;;
32876;SDS011;19226;51.600;8.034;2022-07-19T07:08:09;3.88;;;1.40;;
32876;SDS011;19226;51.600;8.034;2022-07-19T07:10:35;9.63;;;1.83;;
32876;SDS011;19226;51.600;8.034;2022-07-19T07:13:01;6.95;;;1.73;;
32876;SDS011;19226;51.600;8.034;2022-07-19T07:15:27;7.65;;;1.73;;
32876;SDS011;19226;51.600;8.034;2022-07-19T07:17:54;3.22;;;1.50;;
32876;SDS011;19226;51.600;8.034;2022-07-19T07:20:20;5.15;;;1.95;;
32876;SDS011;19226;51.600;8.034;2022-07-19T07:22:46;16.10;;;1.90;;
32876;SDS011;19226;51.600;8.034;2022-07-19T07:25:13;7.47;;;1.75;;
32876;SDS011;19226;51.600;8.034;2022-07-19T07:27:39;3.15;;;1.55;;
32876;SDS011;19226;51.600;8.034;2022-07-19T07:30:05;9.07;;;1.30;;
32876;SDS011;19226;51.600;8.034;2022-07-19T07:32:32;9.15;;;1.42;;
32876;SDS011;19226;51.600;8.034;2022-07-19T07:35:01;6.47;;;1.70;;
32876;SDS011;19226;51.600;8.034;2022-07-19T07:37:27;9.45;;;1.73;;
32876;SDS011;19226;51.600;8.034;2022-07-19T07:39:55;4.82;;;1.30;;
32876;SDS011;19226;51.600;8.034;2022-07-19T07:42:21;10.60;;;1.65;;
32876;SDS011;19226;51.600;8.034;2022-07-19T07:44:48;12.85;;;1.50;;
32876;SDS011;19226;51.600;8.034;2022-07-19T07:47:18;7.30;;;1.58;;
32876;SDS011;19226;51.600;8.034;2022-07-19T07:49:46;11.70;;;1.83;;
32876;SDS011;19226;51.600;8.034;2022-07-19T07:52:13;8.70;;;1.60;;
32876;SDS011;19226;51.600;8.034;2022-07-19T07:54:40;3.97;;;1.80;;
32876;SDS011;19226;51.600;8.034;2022-07-19T07:57:09;3.17;;;1.60;;
32876;SDS011;19226;51.600;8.034;2022-07-19T07:59:38;1.15;;;1.00;;
32876;SDS011;19226;51.600;8.034;2022-07-19T08:02:07;2.70;;;1.50;;
32876;SDS011;19226;51.600;8.034;2022-07-19T08:04:34;2.47;;;1.25;;
32876;SDS011;19226;51.600;8.034;2022-07-19T08:07:00;3.15;;;1.27;;
32876;SDS011;19226;51.600;8.034;2022-07-19T08:09:26;2.85;;;1.15;;
32876;SDS011;19226;51.600;8.034;2022-07-19T08:11:52;6.97;;;1.52;;
32876;SDS011;19226;51.600;8.034;2022-07-19T08:14:19;7.78;;;1.50;;
32876;SDS011;19226;51.600;8.034;2022-07-19T08:16:48;5.45;;;1.42;;
32876;SDS011;19226;51.600;8.034;2022-07-19T08:19:14;9.32;;;1.70;;
32876;SDS011;19226;51.600;8.034;2022-07-19T08:21:41;5.95;;;1.65;;
32876;SDS011;19226;51.600;8.034;2022-07-19T08:24:07;7.32;;;1.50;;
32876;SDS011;19226;51.600;8.034;2022-07-19T08:26:35;2.75;;;1.42;;
32876;SDS011;19226;51.600;8.034;2022-07-19T08:29:01;8.00;;;1.23;;
32876;SDS011;19226;51.600;8.034;2022-07-19T08:31:27;3.70;;;1.50;;
32876;SDS011;19226;51.600;8.034;2022-07-19T08:33:53;1.50;;;1.40;;
32876;SDS011;19226;51.600;8.034;2022-07-19T08:36:25;2.75;;;1.73;;
32876;SDS011;19226;51.600;8.034;2022-07-19T08:38:52;2.67;;;1.40;;
32876;SDS011;19226;51.600;8.034;2022-07-19T08:41:18;12.35;;;1.90;;
32876;SDS011;19226;51.600;8.034;2022-07-19T08:43:51;6.28;;;1.30;;
32876;SDS011;19226;51.600;8.034;2022-07-19T08:46:21;11.10;;;1.77;;
32876;SDS011;19226;51.600;8.034;2022-07-19T08:48:48;9.48;;;1.70;;
32876;SDS011;19226;51.600;8.034;2022-07-19T08:51:17;5.07;;;1.40;;
32876;SDS011;19226;51.600;8.034;2022-07-19T08:53:45;1.95;;;1.20;;
32876;SDS011;19226;51.600;8.034;2022-07-19T08:56:12;4.25;;;1.52;;
32876;SDS011;19226;51.600;8.034;2022-07-19T08:58:56;3.80;;;1.10;;
32876;SDS011;19226;51.600;8.034;2022-07-19T09:01:23;4.45;;;1.48;;
32876;SDS011;19226;51.600;8.034;2022-07-19T09:04:06;4.75;;;1.35;;
32876;SDS011;19226;51.600;8.034;2022-07-19T09:06:37;14.20;;;1.40;;
32876;SDS011;19226;51.600;8.034;2022-07-19T09:09:08;8.95;;;1.52;;
32876;SDS011;19226;51.600;8.034;2022-07-19T09:14:25;9.65;;;1.75;;
32876;SDS011;19226;51.600;8.034;2022-07-19T09:16:57;2.75;;;1.45;;
32876;SDS011;19226;51.600;8.034;2022-07-19T09:19:33;3.95;;;1.45;;
32876;SDS011;19226;51.600;8.034;2022-07-19T09:22:01;5.32;;;1.08;;
32876;SDS011;19226;51.600;8.034;2022-07-19T09:24:39;9.50;;;1.40;;
32876;SDS011;19226;51.600;8.034;2022-07-19T09:27:12;4.20;;;1.33;;
32876;SDS011;19226;51.600;8.034;2022-07-19T09:29:44;8.40;;;1.70;;
32876;SDS011;19226;51.600;8.034;2022-07-19T09:32:15;12.52;;;1.75;;
32876;SDS011;19226;51.600;8.034;2022-07-19T09:37:19;4.03;;;1.75;;
32876;SDS011;19226;51.600;8.034;2022-07-19T09:39:51;12.63;;;1.65;;
32876;SDS011;19226;51.600;8.034;2022-07-19T09:42:21;6.63;;;1.00;;
32876;SDS011;19226;51.600;8.034;2022-07-19T09:45:03;3.47;;;1.40;;
32876;SDS011;19226;51.600;8.034;2022-07-19T09:47:34;5.18;;;1.30;;
32876;SDS011;19226;51.600;8.034;2022-07-19T09:50:03;6.00;;;1.50;;
32876;SDS011;19226;51.600;8.034;2022-07-19T09:52:39;7.07;;;1.52;;
32876;SDS011;19226;51.600;8.034;2022-07-19T09:55:06;9.32;;;1.63;;
32876;SDS011;19226;51.600;8.034;2022-07-19T09:57:34;3.00;;;1.27;;
32876;SDS011;19226;51.600;8.034;2022-07-19T10:00:04;9.85;;;1.30;;
32876;SDS011;19226;51.600;8.034;2022-07-19T10:02:34;3.00;;;1.00;;
32876;SDS011;19226;51.600;8.034;2022-07-19T10:05:03;3.30;;;1.10;;
32876;SDS011;19226;51.600;8.034;2022-07-19T10:07:33;6.05;;;1.20;;
32876;SDS011;19226;51.600;8.034;2022-07-19T10:10:05;8.80;;;1.17;;
32876;SDS011;19226;51.600;8.034;2022-07-19T10:12:33;2.88;;;1.05;;
32876;SDS011;19226;51.600;8.034;2022-07-19T10:20:38;8.90;;;1.48;;
32876;SDS011;19226;51.600;8.034;2022-07-19T10:23:07;7.03;;;2.10;;
32876;SDS011;19226;51.600;8.034;2022-07-19T10:28:32;3.97;;;1.02;;
32876;SDS011;19226;51.600;8.034;2022-07-19T10:31:03;9.52;;;1.30;;
32876;SDS011;19226;51.600;8.034;2022-07-19T10:34:03;9.23;;;1.27;;
32876;SDS011;19226;51.600;8.034;2022-07-19T10:36:38;10.73;;;1.23;;
32876;SDS011;19226;51.600;8.034;2022-07-19T10:44:36;5.35;;;1.52;;
32876;SDS011;19226;51.600;8.034;2022-07-19T10:47:22;7.50;;;1.27;;
32876;SDS011;19226;51.600;8.034;2022-07-19T10:49:48;7.38;;;1.20;;
32876;SDS011;19226;51.600;8.034;2022-07-19T10:58:31;5.22;;;1.33;;
32876;SDS011;19226;51.600;8.034;2022-07-19T11:05:59;3.75;;;1.20;;
32876;SDS011;19226;51.600;8.034;2022-07-19T11:08:43;4.88;;;1.48;;
32876;SDS011;19226;51.600;8.034;2022-07-19T11:11:14;7.53;;;1.20;;
32876;SDS011;19226;51.600;8.034;2022-07-19T11:13:43;6.63;;;1.42;;
32876;SDS011;19226;51.600;8.034;2022-07-19T11:16:12;6.75;;;1.17;;
32876;SDS011;19226;51.600;8.034;2022-07-19T11:18:39;3.83;;;1.65;;
32876;SDS011;19226;51.600;8.034;2022-07-19T11:21:06;3.55;;;1.00;;
32876;SDS011;19226;51.600;8.034;2022-07-19T11:23:33;8.60;;;1.20;;
32876;SDS011;19226;51.600;8.034;2022-07-19T11:28:42;5.78;;;1.23;;
32876;SDS011;19226;51.600;8.034;2022-07-19T11:33:47;1.98;;;1.38;;
32876;SDS011;19226;51.600;8.034;2022-07-19T11:36:15;4.20;;;1.60;;
32876;SDS011;19226;51.600;8.034;2022-07-19T11:38:46;5.32;;;1.38;;
32876;SDS011;19226;51.600;8.034;2022-07-19T11:41:21;4.90;;;1.67;;
32876;SDS011;19226;51.600;8.034;2022-07-19T11:46:23;6.80;;;1.20;;
32876;SDS011;19226;51.600;8.034;2022-07-19T11:48:55;11.15;;;1.70;;
32876;SDS011;19226;51.600;8.034;2022-07-19T11:51:25;3.03;;;1.00;;
32876;SDS011;19226;51.600;8.034;2022-07-19T11:53:53;11.02;;;1.40;;
32876;SDS011;19226;51.600;8.034;2022-07-19T11:56:25;5.18;;;1.15;;
32876;SDS011;19226;51.600;8.034;2022-07-19T11:58:55;5.53;;;1.25;;
32876;SDS011;19226;51.600;8.034;2022-07-19T12:01:33;11.52;;;1.25;;
32876;SDS011;19226;51.600;8.034;2022-07-19T12:04:10;5.68;;;1.15;;
32876;SDS011;19226;51.600;8.034;2022-07-19T12:06:39;3.17;;;1.10;;
32876;SDS011;19226;51.600;8.034;2022-07-19T12:09:07;12.20;;;1.00;;
32876;SDS011;19226;51.600;8.034;2022-07-19T12:11:41;6.28;;;1.00;;
32876;SDS011;19226;51.600;8.034;2022-07-19T12:14:19;4.90;;;1.52;;
32876;SDS011;19226;51.600;8.034;2022-07-19T12:16:46;3.70;;;1.48;;
32876;SDS011;19226;51.600;8.034;2022-07-19T12:19:13;2.25;;;1.20;;
32876;SDS011;19226;51.600;8.034;2022-07-19T12:21:43;6.53;;;1.15;;
32876;SDS011;19226;51.600;8.034;2022-07-19T12:24:11;4.20;;;1.00;;
32876;SDS011;19226;51.600;8.034;2022-07-19T12:29:24;2.38;;;1.23;;
32876;SDS011;19226;51.600;8.034;2022-07-19T12:31:53;3.38;;;1.23;;
32876;SDS011;19226;51.600;8.034;2022-07-19T12:34:22;6.05;;;1.00;;
32876;SDS011;19226;51.600;8.034;2022-07-19T12:36:49;6.47;;;1.00;;
32876;SDS011;19226;51.600;8.034;2022-07-19T12:39:19;5.70;;;1.40;;
32876;SDS011;19226;51.600;8.034;2022-07-19T12:41:58;0.95;;;0.88;;
32876;SDS011;19226;51.600;8.034;2022-07-19T12:44:33;6.30;;;1.00;;
32876;SDS011;19226;51.600;8.034;2022-07-19T12:47:01;3.08;;;1.25;;
32876;SDS011;19226;51.600;8.034;2022-07-19T12:49:43;10.80;;;1.30;;
32876;SDS011;19226;51.600;8.034;2022-07-19T12:52:10;3.03;;;1.05;;
32876;SDS011;19226;51.600;8.034;2022-07-19T12:54:36;10.35;;;1.50;;
32876;SDS011;19226;51.600;8.034;2022-07-19T12:57:03;4.65;;;1.23;;
32876;SDS011;19226;51.600;8.034;2022-07-19T12:59:30;11.23;;;1.05;;
32876;SDS011;19226;51.600;8.034;2022-07-19T13:02:06;4.82;;;1.50;;
32876;SDS011;19226;51.600;8.034;2022-07-19T13:04:39;1.63;;;1.10;;
32876;SDS011;19226;51.600;8.034;2022-07-19T13:07:10;3.85;;;1.25;;
32876;SDS011;19226;51.600;8.034;2022-07-19T13:09:37;2.90;;;1.23;;
32876;SDS011;19226;51.600;8.034;2022-07-19T13:12:05;2.43;;;0.97;;
32876;SDS011;19226;51.600;8.034;2022-07-19T13:14:33;21.25;;;1.63;;
32876;SDS011;19226;51.600;8.034;2022-07-19T13:17:00;4.60;;;1.42;;
32876;SDS011;19226;51.600;8.034;2022-07-19T13:19:26;3.70;;;1.33;;
32876;SDS011;19226;51.600;8.034;2022-07-19T13:21:53;2.38;;;1.20;;
32876;SDS011;19226;51.600;8.034;2022-07-19T13:24:20;5.25;;;1.10;;
32876;SDS011;19226;51.600;8.034;2022-07-19T13:26:47;2.10;;;1.20;;
32876;SDS011;19226;51.600;8.034;2022-07-19T13:29:16;4.93;;;1.13;;
32876;SDS011;19226;51.600;8.034;2022-07-19T13:31:42;6.95;;;1.27;;
32876;SDS011;19226;51.600;8.034;2022-07-19T13:34:09;4.22;;;1.25;;
32876;SDS011;19226;51.600;8.034;2022-07-19T13:36:35;7.05;;;1.20;;
32876;SDS011;19226;51.600;8.034;2022-07-19T13:39:01;1.60;;;1.08;;
32876;SDS011;19226;51.600;8.034;2022-07-19T13:41:28;0.88;;;0.88;;
32876;SDS011;19226;51.600;8.034;2022-07-19T13:43:54;6.65;;;1.15;;
32876;SDS011;19226;51.600;8.034;2022-07-19T13:46:22;6.18;;;1.10;;
32876;SDS011;19226;51.600;8.034;2022-07-19T13:48:48;3.75;;;1.10;;
32876;SDS011;19226;51.600;8.034;2022-07-19T13:51:14;5.18;;;1.30;;
32876;SDS011;19226;51.600;8.034;2022-07-19T13:53:41;2.40;;;1.13;;
32876;SDS011;19226;51.600;8.034;2022-07-19T13:56:09;2.20;;;1.10;;
32876;SDS011;19226;51.600;8.034;2022-07-19T13:58:36;5.32;;;1.13;;
32876;SDS011;19226;51.600;8.034;2022-07-19T14:01:02;3.35;;;0.95;;
32876;SDS011;19226;51.600;8.034;2022-07-19T14:03:28;5.38;;;1.20;;
32876;SDS011;19226;51.600;8.034;2022-07-19T14:05:54;5.05;;;1.10;;
32876;SDS011;19226;51.600;8.034;2022-07-19T14:08:21;1.33;;;0.80;;
32876;SDS011;19226;51.600;8.034;2022-07-19T14:10:47;2.78;;;1.30;;
32876;SDS011;19226;51.600;8.034;2022-07-19T14:13:15;6.28;;;1.05;;
32876;SDS011;19226;51.600;8.034;2022-07-19T14:15:41;16.88;;;1.40;;
32876;SDS011;19226;51.600;8.034;2022-07-19T14:18:11;2.72;;;0.85;;
32876;SDS011;19226;51.600;8.034;2022-07-19T14:20:42;2.22;;;1.00;;
32876;SDS011;19226;51.600;8.034;2022-07-19T14:23:10;2.03;;;0.88;;
32876;SDS011;19226;51.600;8.034;2022-07-19T14:25:38;1.05;;;0.93;;
32876;SDS011;19226;51.600;8.034;2022-07-19T14:28:05;7.35;;;1.20;;
32876;SDS011;19226;51.600;8.034;2022-07-19T14:30:32;10.90;;;1.08;;
32876;SDS011;19226;51.600;8.034;2022-07-19T14:33:01;4.90;;;1.20;;
32876;SDS011;19226;51.600;8.034;2022-07-19T14:35:27;1.77;;;0.93;;
32876;SDS011;19226;51.600;8.034;2022-07-19T14:37:55;4.97;;;1.08;;
32876;SDS011;19226;51.600;8.034;2022-07-19T14:40:21;2.38;;;0.93;;
32876;SDS011;19226;51.600;8.034;2022-07-19T14:42:47;1.17;;;0.98;;
32876;SDS011;19226;51.600;8.034;2022-07-19T14:45:13;3.45;;;0.88;;
32876;SDS011;19226;51.600;8.034;2022-07-19T14:47:39;1.63;;;0.98;;
32876;SDS011;19226;51.600;8.034;2022-07-19T14:50:10;6.70;;;1.30;;
32876;SDS011;19226;51.600;8.034;2022-07-19T14:52:36;2.83;;;0.80;;
32876;SDS011;19226;51.600;8.034;2022-07-19T14:55:04;17.48;;;1.00;;
32876;SDS011;19226;51.600;8.034;2022-07-19T14:57:30;6.88;;;1.08;;
32876;SDS011;19226;51.600;8.034;2022-07-19T14:59:56;1.40;;;0.75;;
32876;SDS011;19226;51.600;8.034;2022-07-19T15:02:22;2.65;;;0.98;;
32876;SDS011;19226;51.600;8.034;2022-07-19T15:04:48;0.95;;;0.75;;
32876;SDS011;19226;51.600;8.034;2022-07-19T15:07:15;5.53;;;0.90;;
32876;SDS011;19226;51.600;8.034;2022-07-19T15:09:42;0.82;;;0.80;;
32876;SDS011;19226;51.600;8.034;2022-07-19T15:12:09;3.90;;;0.98;;
32876;SDS011;19226;51.600;8.034;2022-07-19T15:14:37;3.03;;;1.00;;
32876;SDS011;19226;51.600;8.034;2022-07-19T15:17:22;3.97;;;1.40;;
32876;SDS011;19226;51.600;8.034;2022-07-19T15:19:48;7.63;;;1.05;;
32876;SDS011;19226;51.600;8.034;2022-07-19T15:22:14;6.78;;;1.27;;
32876;SDS011;19226;51.600;8.034;2022-07-19T15:24:41;4.65;;;1.20;;
32876;SDS011;19226;51.600;8.034;2022-07-19T15:27:06;3.38;;;1.10;;
32876;SDS011;19226;51.600;8.034;2022-07-19T15:29:33;5.55;;;1.00;;
32876;SDS011;19226;51.600;8.034;2022-07-19T15:31:59;2.22;;;0.70;;
32876;SDS011;19226;51.600;8.034;2022-07-19T15:34:25;2.78;;;0.98;;
32876;SDS011;19226;51.600;8.034;2022-07-19T15:36:51;5.47;;;1.02;;
32876;SDS011;19226;51.600;8.034;2022-07-19T15:39:17;2.55;;;0.80;;
32876;SDS011;19226;51.600;8.034;2022-07-19T15:41:43;1.77;;;1.00;;
32876;SDS011;19226;51.600;8.034;2022-07-19T15:44:09;3.33;;;1.00;;
32876;SDS011;19226;51.600;8.034;2022-07-19T15:46:35;1.88;;;0.88;;